createdAt,value
2023-12-07T00:00:42.858Z,1626.00
2023-12-07T00:01:42.991Z,1624.00
2023-12-07T00:02:42.922Z,1617.00
2023-12-07T00:03:43.035Z,1615.00
2023-12-07T00:04:42.958Z,1612.00
2023-12-07T00:05:43.002Z,1612.00
2023-12-07T00:06:42.987Z,1608.00
2023-12-07T00:07:43.024Z,1607.00
2023-12-07T00:08:43.081Z,1608.00
2023-12-07T00:09:43.110Z,1609.00
2023-12-07T00:10:43.150Z,1608.00
2023-12-07T00:11:43.158Z,1607.00
2023-12-07T00:12:43.206Z,1609.00
2023-12-07T00:13:43.191Z,1604.00
2023-12-07T00:14:43.225Z,1605.00
2023-12-07T00:15:43.257Z,1606.00
2023-12-07T00:16:43.313Z,1606.00
2023-12-07T00:17:43.347Z,1607.00
2023-12-07T00:18:43.412Z,1604.00
2023-12-07T00:19:43.409Z,1606.00
2023-12-07T00:20:43.444Z,1610.00
2023-12-07T00:21:43.481Z,1611.00
2023-12-07T00:22:43.529Z,1611.00
2023-12-07T00:23:43.513Z,1610.00
2023-12-07T00:24:43.534Z,1609.00
2023-12-07T00:25:43.573Z,1608.00
2023-12-07T00:26:43.634Z,1606.00
2023-12-07T00:27:43.628Z,1606.00
2023-12-07T00:28:43.653Z,1603.00
2023-12-07T00:29:43.683Z,1601.00
2023-12-07T00:30:43.730Z,1600.00
2023-12-07T00:31:43.739Z,1603.00
2023-12-07T00:32:43.778Z,1600.00
2023-12-07T00:33:43.784Z,1601.00
2023-12-07T00:34:43.847Z,1600.00
2023-12-07T00:35:43.840Z,1605.00
2023-12-07T00:36:43.868Z,1602.00
2023-12-07T00:37:43.904Z,1600.00
2023-12-07T00:38:43.985Z,1597.00
2023-12-07T00:39:43.971Z,1591.00
2023-12-07T00:40:44.006Z,1587.00
2023-12-07T00:41:44.041Z,1581.00
2023-12-07T00:42:46.802Z,1578.00
2023-12-07T00:43:44.805Z,1573.00
2023-12-07T00:44:44.140Z,1568.00
2023-12-07T00:45:44.078Z,1566.00
2023-12-07T00:46:44.086Z,1565.00
2023-12-07T00:47:44.082Z,1566.00
2023-12-07T00:48:44.161Z,1567.00
2023-12-07T00:49:44.217Z,1568.00
2023-12-07T00:50:44.091Z,1573.00
2023-12-07T00:51:44.125Z,1575.00
2023-12-07T00:52:44.110Z,1576.00
2023-12-07T00:53:44.176Z,1576.00
2023-12-07T00:54:44.105Z,1575.00
2023-12-07T00:55:44.121Z,1574.00
2023-12-07T00:56:44.087Z,1575.00
2023-12-07T00:57:44.114Z,1574.00
2023-12-07T00:58:44.109Z,1573.00
2023-12-07T00:59:44.098Z,1569.00
2023-12-07T01:00:44.113Z,1567.00
2023-12-07T01:01:44.101Z,1564.00
2023-12-07T01:02:44.112Z,1561.00
2023-12-07T01:03:44.116Z,1560.00
2023-12-07T01:04:44.207Z,1557.00
2023-12-07T01:05:44.232Z,1555.00
2023-12-07T01:06:44.164Z,1557.00
2023-12-07T01:07:44.150Z,1553.00
2023-12-07T01:08:44.126Z,1549.00
2023-12-07T01:09:44.108Z,1543.00
2023-12-07T01:10:44.119Z,1546.00
2023-12-07T01:11:44.120Z,1545.00
2023-12-07T01:12:44.143Z,1543.00
2023-12-07T01:13:44.117Z,1543.00
2023-12-07T01:14:44.120Z,1541.00
2023-12-07T01:15:44.114Z,1543.00
2023-12-07T01:16:44.126Z,1541.00
2023-12-07T01:17:44.119Z,1542.00
2023-12-07T01:18:44.214Z,1538.00
2023-12-07T01:19:44.125Z,1538.00
2023-12-07T01:20:44.125Z,1537.00
2023-12-07T01:21:44.125Z,1534.00
2023-12-07T01:22:44.148Z,1536.00
2023-12-07T01:23:44.304Z,1534.00
2023-12-07T01:24:44.245Z,1536.00
2023-12-07T01:25:44.188Z,1538.00
2023-12-07T01:26:44.137Z,1538.00
2023-12-07T01:27:44.155Z,1537.00
2023-12-07T01:28:44.126Z,1535.00
2023-12-07T01:29:44.160Z,1537.00
2023-12-07T01:30:44.170Z,1536.00
2023-12-07T01:31:44.133Z,1534.00
2023-12-07T01:32:44.159Z,1532.00
2023-12-07T01:33:44.297Z,1534.00
2023-12-07T01:34:44.206Z,1534.00
2023-12-07T01:35:44.238Z,1533.00
2023-12-07T01:36:44.289Z,1534.00
2023-12-07T01:37:44.358Z,1531.00
2023-12-07T01:38:44.417Z,1529.00
2023-12-07T01:39:44.482Z,1526.00
2023-12-07T01:40:46.660Z,1525.00
2023-12-07T01:41:44.647Z,1527.00
2023-12-07T01:42:44.665Z,1524.00
2023-12-07T01:43:44.757Z,1521.00
2023-12-07T01:44:44.810Z,1522.00
2023-12-07T01:45:44.946Z,1524.00
2023-12-07T01:46:44.946Z,1524.00
2023-12-07T01:47:45.171Z,1521.00
2023-12-07T01:48:45.234Z,1518.00
2023-12-07T01:49:45.209Z,1516.00
2023-12-07T01:50:45.183Z,1514.00
2023-12-07T01:51:45.247Z,1512.00
2023-12-07T01:52:45.337Z,1511.00
2023-12-07T01:53:45.374Z,1511.00
2023-12-07T01:54:45.445Z,1510.00
2023-12-07T01:55:45.511Z,1506.00
2023-12-07T01:56:45.572Z,1504.00
2023-12-07T01:57:45.733Z,1503.00
2023-12-07T01:58:45.783Z,1505.00
2023-12-07T01:59:45.729Z,1507.00
2023-12-07T02:00:45.838Z,1507.00
2023-12-07T02:01:46.023Z,1504.00
2023-12-07T02:02:45.905Z,1503.00
2023-12-07T02:03:46.122Z,1498.00
2023-12-07T02:04:46.106Z,1497.00
2023-12-07T02:05:46.858Z,1497.00
2023-12-07T02:06:46.112Z,1498.00
2023-12-07T02:07:46.167Z,1497.00
2023-12-07T02:08:46.231Z,1495.00
2023-12-07T02:09:46.273Z,1496.00
2023-12-07T02:10:46.363Z,1498.00
2023-12-07T02:11:46.389Z,1499.00
2023-12-07T02:12:46.431Z,1498.00
2023-12-07T02:13:46.464Z,1500.00
2023-12-07T02:14:46.502Z,1497.00
2023-12-07T02:15:46.585Z,1492.00
2023-12-07T02:16:46.598Z,1490.00
2023-12-07T02:17:46.690Z,1492.00
2023-12-07T02:18:46.704Z,1493.00
2023-12-07T02:19:46.784Z,1492.00
2023-12-07T02:20:47.330Z,1493.00
2023-12-07T02:21:46.817Z,1491.00
2023-12-07T02:22:46.881Z,1488.00
2023-12-07T02:23:52.196Z,1486.00
2023-12-07T02:24:47.895Z,1484.00
2023-12-07T02:25:46.989Z,1482.00
2023-12-07T02:26:46.952Z,1479.00
2023-12-07T02:27:46.922Z,1477.00
2023-12-07T02:28:46.897Z,1475.00
2023-12-07T02:29:46.895Z,1473.00
2023-12-07T02:30:46.907Z,1469.00
2023-12-07T02:31:46.909Z,1466.00
2023-12-07T02:32:46.967Z,1469.00
2023-12-07T02:33:47.178Z,1468.00
2023-12-07T02:34:46.940Z,1469.00
2023-12-07T02:35:46.910Z,1468.00
2023-12-07T02:36:46.912Z,1470.00
2023-12-07T02:37:46.915Z,1469.00
2023-12-07T02:38:46.915Z,1466.00
2023-12-07T02:39:47.839Z,1463.00
2023-12-07T02:40:46.970Z,1465.00
2023-12-07T02:41:46.983Z,1464.00
2023-12-07T02:42:47.110Z,1461.00
2023-12-07T02:43:47.076Z,1463.00
2023-12-07T02:44:47.103Z,1464.00
2023-12-07T02:45:47.162Z,1464.00
2023-12-07T02:46:47.184Z,1461.00
2023-12-07T02:47:47.260Z,1462.00
2023-12-07T02:48:47.271Z,1461.00
2023-12-07T02:49:47.349Z,1458.00
2023-12-07T02:50:47.322Z,1455.00
2023-12-07T02:51:47.356Z,1453.00
2023-12-07T02:52:47.449Z,1448.00
2023-12-07T02:53:47.423Z,1447.00
2023-12-07T02:54:47.481Z,1446.00
2023-12-07T02:55:47.482Z,1449.00
2023-12-07T02:56:47.514Z,1451.00
2023-12-07T02:57:48.346Z,1450.00
2023-12-07T02:58:47.587Z,1452.00
2023-12-07T02:59:47.625Z,1449.00
2023-12-07T03:00:47.658Z,1446.00
2023-12-07T03:01:47.709Z,1444.00
2023-12-07T03:02:47.717Z,1441.00
2023-12-07T03:03:47.811Z,1439.00
2023-12-07T03:04:47.821Z,1441.00
2023-12-07T03:05:47.874Z,1440.00
2023-12-07T03:06:47.870Z,1441.00
2023-12-07T03:07:47.890Z,1441.00
2023-12-07T03:08:47.943Z,1442.00
2023-12-07T03:09:47.975Z,1441.00
2023-12-07T03:10:48.001Z,1439.00
2023-12-07T03:11:48.033Z,1439.00
2023-12-07T03:12:48.846Z,1439.00
2023-12-07T03:13:48.180Z,1438.00
2023-12-07T03:14:48.146Z,1440.00
2023-12-07T03:15:48.865Z,1441.00
2023-12-07T03:16:48.197Z,1440.00
2023-12-07T03:17:48.285Z,1443.00
2023-12-07T03:18:48.322Z,1442.00
2023-12-07T03:19:48.355Z,1444.00
2023-12-07T03:20:48.320Z,1447.00
2023-12-07T03:21:48.347Z,1450.00
2023-12-07T03:22:48.502Z,1449.00
2023-12-07T03:23:48.403Z,1447.00
2023-12-07T03:24:48.436Z,1445.00
2023-12-07T03:25:48.464Z,1445.00
2023-12-07T03:26:48.488Z,1444.00
2023-12-07T03:27:48.492Z,1441.00
2023-12-07T03:28:48.525Z,1444.00
2023-12-07T03:29:48.559Z,1443.00
2023-12-07T03:30:48.577Z,1443.00
2023-12-07T03:31:48.604Z,1445.00
2023-12-07T03:32:48.640Z,1446.00
2023-12-07T03:33:48.678Z,1446.00
2023-12-07T03:34:48.791Z,1446.00
2023-12-07T03:35:49.359Z,1443.00
2023-12-07T03:36:49.401Z,1440.00
2023-12-07T03:37:48.793Z,1440.00
2023-12-07T03:38:48.885Z,1441.00
2023-12-07T03:39:48.825Z,1438.00
2023-12-07T03:40:48.866Z,1434.00
2023-12-07T03:41:48.883Z,1432.00
2023-12-07T03:42:55.924Z,1428.00
2023-12-07T03:43:49.985Z,1424.00
2023-12-07T03:44:48.916Z,1425.00
2023-12-07T03:45:48.942Z,1425.00
2023-12-07T03:46:49.006Z,1422.00
2023-12-07T03:47:48.989Z,1421.00
2023-12-07T03:48:48.966Z,1421.00
2023-12-07T03:49:49.036Z,1422.00
2023-12-07T03:50:48.928Z,1420.00
2023-12-07T03:51:48.936Z,1419.00
2023-12-07T03:52:48.999Z,1423.00
2023-12-07T03:53:50.921Z,1426.00
2023-12-07T03:54:48.938Z,1428.00
2023-12-07T03:55:48.936Z,1424.00
2023-12-07T03:56:48.932Z,1424.00
2023-12-07T03:57:48.936Z,1423.00
2023-12-07T03:58:48.929Z,1419.00
2023-12-07T03:59:48.938Z,1419.00
2023-12-07T04:00:48.937Z,1416.00
2023-12-07T04:01:48.969Z,1415.00
2023-12-07T04:02:48.960Z,1415.00
2023-12-07T04:03:49.017Z,1411.00
2023-12-07T04:04:48.956Z,1411.00
2023-12-07T04:05:48.991Z,1407.00
2023-12-07T04:06:48.935Z,1403.00
2023-12-07T04:07:49.875Z,1400.00
2023-12-07T04:08:48.936Z,1400.00
2023-12-07T04:09:48.946Z,1397.00
2023-12-07T04:10:48.935Z,1398.00
2023-12-07T04:11:48.936Z,1399.00
2023-12-07T04:12:48.933Z,1397.00
2023-12-07T04:13:48.939Z,1394.00
2023-12-07T04:14:48.933Z,1394.00
2023-12-07T04:15:49.002Z,1398.00
2023-12-07T04:16:48.926Z,1392.00
2023-12-07T04:17:48.954Z,1385.00
2023-12-07T04:18:48.968Z,1383.00
2023-12-07T04:19:49.021Z,1385.00
2023-12-07T04:20:48.933Z,1385.00
2023-12-07T04:21:48.939Z,1382.00
2023-12-07T04:22:48.957Z,1382.00
2023-12-07T04:23:48.932Z,1380.00
2023-12-07T04:24:49.002Z,1383.00
2023-12-07T04:25:48.938Z,1383.00
2023-12-07T04:26:48.936Z,1381.00
2023-12-07T04:27:56.189Z,1365.00
2023-12-07T04:28:56.253Z,1366.00
2023-12-07T04:29:56.187Z,1361.00
2023-12-07T04:30:56.187Z,1361.00
2023-12-07T04:32:03.414Z,1363.00
2023-12-07T04:33:03.631Z,1370.00
2023-12-07T04:34:03.555Z,1374.00
2023-12-07T04:35:03.525Z,1378.00
2023-12-07T04:36:03.474Z,1376.00
2023-12-07T04:37:03.504Z,1379.00
2023-12-07T04:38:03.480Z,1379.00
2023-12-07T04:39:03.490Z,1377.00
2023-12-07T04:40:03.545Z,1375.00
2023-12-07T04:41:03.517Z,1372.00
2023-12-07T04:42:03.484Z,1371.00
2023-12-07T04:43:03.550Z,1371.00
2023-12-07T04:44:03.486Z,1367.00
2023-12-07T04:45:03.492Z,1365.00
2023-12-07T04:46:03.523Z,1362.00
2023-12-07T04:47:03.492Z,1361.00
2023-12-07T04:48:03.607Z,1357.00
2023-12-07T04:49:03.538Z,1359.00
2023-12-07T04:50:03.477Z,1357.00
2023-12-07T04:51:03.489Z,1358.00
2023-12-07T04:52:03.557Z,1361.00
2023-12-07T04:53:03.484Z,1364.00
2023-12-07T04:54:12.488Z,1366.00
2023-12-07T04:55:04.530Z,1363.00
2023-12-07T04:56:03.501Z,1360.00
2023-12-07T04:57:03.491Z,1357.00
2023-12-07T04:58:03.533Z,1360.00
2023-12-07T04:59:03.495Z,1357.00
2023-12-07T05:00:03.501Z,1356.00
2023-12-07T05:01:03.569Z,1358.00
2023-12-07T05:02:03.568Z,1358.00
2023-12-07T05:03:03.587Z,1355.00
2023-12-07T05:04:03.575Z,1355.00
2023-12-07T05:05:03.568Z,1354.00
2023-12-07T05:06:03.516Z,1353.00
2023-12-07T05:07:03.607Z,1353.00
2023-12-07T05:08:03.516Z,1354.00
2023-12-07T05:09:03.513Z,1352.00
2023-12-07T05:10:03.528Z,1349.00
2023-12-07T05:11:03.516Z,1349.00
2023-12-07T05:12:03.509Z,1348.00
2023-12-07T05:13:03.579Z,1347.00
2023-12-07T05:14:03.524Z,1346.00
2023-12-07T05:15:03.555Z,1346.00
2023-12-07T05:16:03.557Z,1344.00
2023-12-07T05:17:03.603Z,1345.00
2023-12-07T05:18:03.633Z,1347.00
2023-12-07T05:19:03.637Z,1347.00
2023-12-07T05:20:03.623Z,1349.00
2023-12-07T05:21:03.664Z,1346.00
2023-12-07T05:22:03.726Z,1342.00
2023-12-07T05:23:03.699Z,1340.00
2023-12-07T05:24:03.761Z,1336.00
2023-12-07T05:25:03.828Z,1336.00
2023-12-07T05:26:04.518Z,1336.00
2023-12-07T05:27:03.782Z,1339.00
2023-12-07T05:28:04.594Z,1336.00
2023-12-07T05:29:03.889Z,1334.00
2023-12-07T05:30:03.848Z,1333.00
2023-12-07T05:31:03.932Z,1332.00
2023-12-07T05:32:03.932Z,1332.00
2023-12-07T05:33:04.007Z,1333.00
2023-12-07T05:34:04.048Z,1333.00
2023-12-07T05:35:03.939Z,1328.00
2023-12-07T05:36:04.029Z,1324.00
2023-12-07T05:37:04.008Z,1321.00
2023-12-07T05:38:03.990Z,1321.00
2023-12-07T05:39:04.107Z,1320.00
2023-12-07T05:40:04.112Z,1322.00
2023-12-07T05:41:04.061Z,1323.00
2023-12-07T05:42:04.070Z,1324.00
2023-12-07T05:43:04.156Z,1325.00
2023-12-07T05:44:04.111Z,1325.00
2023-12-07T05:45:04.125Z,1324.00
2023-12-07T05:46:04.182Z,1325.00
2023-12-07T05:47:04.531Z,1326.00
2023-12-07T05:48:04.285Z,1331.00
2023-12-07T05:49:04.301Z,1330.00
2023-12-07T05:50:04.220Z,1330.00
2023-12-07T05:51:04.231Z,1327.00
2023-12-07T05:52:04.332Z,1328.00
2023-12-07T05:53:04.263Z,1324.00
2023-12-07T05:54:04.282Z,1322.00
2023-12-07T05:55:04.362Z,1321.00
2023-12-07T05:56:05.155Z,1320.00
2023-12-07T05:57:04.333Z,1322.00
2023-12-07T05:58:04.380Z,1319.00
2023-12-07T05:59:04.375Z,1318.00
2023-12-07T06:00:04.389Z,1316.00
2023-12-07T06:01:04.546Z,1314.00
2023-12-07T06:02:05.685Z,1315.00
2023-12-07T06:03:05.076Z,1315.00
2023-12-07T06:04:04.429Z,1311.00
2023-12-07T06:05:04.446Z,1312.00
2023-12-07T06:06:04.432Z,1314.00
2023-12-07T06:07:04.452Z,1314.00
2023-12-07T06:08:04.418Z,1312.00
2023-12-07T06:09:04.425Z,1308.00
2023-12-07T06:10:04.475Z,1306.00
2023-12-07T06:11:04.428Z,1302.00
2023-12-07T06:12:04.432Z,1300.00
2023-12-07T06:13:04.516Z,1301.00
2023-12-07T06:14:04.636Z,1302.00
2023-12-07T06:15:04.438Z,1300.00
2023-12-07T06:16:04.560Z,1297.00
2023-12-07T06:17:04.430Z,1299.00
2023-12-07T06:18:04.538Z,1297.00
2023-12-07T06:19:04.541Z,1295.00
2023-12-07T06:20:04.573Z,1292.00
2023-12-07T06:21:04.450Z,1293.00
2023-12-07T06:22:04.496Z,1295.00
2023-12-07T06:23:04.442Z,1311.00
2023-12-07T06:24:04.443Z,1333.00
2023-12-07T06:25:04.457Z,1355.00
2023-12-07T06:26:04.445Z,1375.00
2023-12-07T06:27:04.461Z,1378.00
2023-12-07T06:28:04.485Z,1367.00
2023-12-07T06:29:04.441Z,1363.00
2023-12-07T06:30:04.447Z,1363.00
2023-12-07T06:31:04.489Z,1371.00
2023-12-07T06:32:04.448Z,1372.00
2023-12-07T06:33:04.502Z,1373.00
2023-12-07T06:34:04.561Z,1370.00
2023-12-07T06:35:04.590Z,1367.00
2023-12-07T06:36:04.617Z,1371.00
2023-12-07T06:37:04.580Z,1369.00
2023-12-07T06:38:04.452Z,1367.00
2023-12-07T06:39:04.466Z,1363.00
2023-12-07T06:40:05.475Z,1362.00
2023-12-07T06:41:04.469Z,1360.00
2023-12-07T06:42:04.474Z,1363.00
2023-12-07T06:43:04.508Z,1364.00
2023-12-07T06:44:04.472Z,1363.00
2023-12-07T06:45:04.457Z,1363.00
2023-12-07T06:46:04.494Z,1363.00
2023-12-07T06:47:04.483Z,1363.00
2023-12-07T06:48:04.602Z,1363.00
2023-12-07T06:49:04.584Z,1361.00
2023-12-07T06:50:05.604Z,1359.00
2023-12-07T06:51:04.476Z,1357.00
2023-12-07T06:52:04.518Z,1358.00
2023-12-07T06:53:04.490Z,1358.00
2023-12-07T06:54:04.487Z,1356.00
2023-12-07T06:55:04.542Z,1353.00
2023-12-07T06:56:04.506Z,1351.00
2023-12-07T06:57:04.566Z,1346.00
2023-12-07T06:58:04.509Z,1346.00
2023-12-07T06:59:04.478Z,1343.00
2023-12-07T07:00:04.504Z,1341.00
2023-12-07T07:01:04.571Z,1342.00
2023-12-07T07:02:04.626Z,1341.00
2023-12-07T07:03:04.496Z,1345.00
2023-12-07T07:04:04.552Z,1345.00
2023-12-07T07:05:04.739Z,1343.00
2023-12-07T07:06:04.547Z,1338.00
2023-12-07T07:07:04.559Z,1338.00
2023-12-07T07:08:04.494Z,1340.00
2023-12-07T07:09:04.501Z,1342.00
2023-12-07T07:10:04.671Z,1342.00
2023-12-07T07:11:04.523Z,1339.00
2023-12-07T07:12:04.523Z,1336.00
2023-12-07T07:13:04.571Z,1336.00
2023-12-07T07:14:04.500Z,1332.00
2023-12-07T07:15:04.507Z,1328.00
2023-12-07T07:16:05.722Z,1328.00
2023-12-07T07:17:04.504Z,1326.00
2023-12-07T07:18:04.599Z,1321.00
2023-12-07T07:19:04.597Z,1321.00
2023-12-07T07:20:04.526Z,1321.00
2023-12-07T07:21:04.509Z,1321.00
2023-12-07T07:22:04.524Z,1321.00
2023-12-07T07:23:04.509Z,1318.00
2023-12-07T07:24:05.621Z,1328.00
2023-12-07T07:25:04.615Z,1415.00
2023-12-07T07:26:04.526Z,1461.00
2023-12-07T07:27:04.544Z,1528.00
2023-12-07T07:28:04.639Z,1546.00
2023-12-07T07:29:04.623Z,1568.00
2023-12-07T07:30:04.615Z,1592.00
2023-12-07T07:31:04.701Z,1616.00
2023-12-07T07:32:05.558Z,1650.00
2023-12-07T07:33:04.847Z,1687.00
2023-12-07T07:34:04.978Z,1729.00
2023-12-07T07:35:04.976Z,1771.00
2023-12-07T07:36:04.989Z,1801.00
2023-12-07T07:37:05.989Z,1822.00
2023-12-07T07:38:05.081Z,1847.00
2023-12-07T07:39:05.980Z,1910.00
2023-12-07T07:40:05.180Z,1944.00
2023-12-07T07:41:05.244Z,1981.00
2023-12-07T07:42:05.245Z,2013.00
2023-12-07T07:43:05.337Z,2035.00
2023-12-07T07:44:05.393Z,2061.00
2023-12-07T07:45:05.350Z,2108.00
2023-12-07T07:46:05.412Z,2133.00
2023-12-07T07:47:05.431Z,2155.00
2023-12-07T07:48:05.549Z,2174.00
2023-12-07T07:49:05.657Z,2219.00
2023-12-07T07:50:05.510Z,2250.00
2023-12-07T07:51:06.500Z,2267.00
2023-12-07T07:52:05.529Z,2298.00
2023-12-07T07:53:05.512Z,2324.00
2023-12-07T07:54:05.495Z,2366.00
2023-12-07T07:55:05.641Z,2388.00
2023-12-07T07:56:05.513Z,2408.00
2023-12-07T07:57:05.576Z,2441.00
2023-12-07T07:58:05.557Z,2469.00
2023-12-07T07:59:05.506Z,2519.00
2023-12-07T08:00:05.524Z,2570.00
2023-12-07T08:01:05.664Z,2596.00
2023-12-07T08:02:05.518Z,2666.00
2023-12-07T08:03:05.531Z,2669.00
2023-12-07T08:04:05.529Z,2692.00
2023-12-07T08:05:05.508Z,2773.00
2023-12-07T08:06:05.550Z,2782.00
2023-12-07T08:07:05.519Z,2800.00
2023-12-07T08:08:05.545Z,2815.00
2023-12-07T08:09:05.514Z,2834.00
2023-12-07T08:10:05.544Z,2877.00
2023-12-07T08:11:05.523Z,2926.00
2023-12-07T08:12:05.520Z,2955.00
2023-12-07T08:13:05.607Z,2980.00
2023-12-07T08:14:05.525Z,3000.00
2023-12-07T08:15:05.524Z,3018.00
2023-12-07T08:16:05.528Z,3052.00
2023-12-07T08:17:05.550Z,3083.00
2023-12-07T08:18:05.677Z,3112.00
2023-12-07T08:19:05.753Z,3131.00
2023-12-07T08:20:05.723Z,2811.00
2023-12-07T08:21:05.744Z,2762.00
2023-12-07T08:22:05.799Z,2634.00
2023-12-07T08:23:05.760Z,2761.00
2023-12-07T08:24:05.884Z,2752.00
2023-12-07T08:25:11.224Z,2760.00
2023-12-07T08:26:06.810Z,2773.00
2023-12-07T08:27:05.808Z,2794.00
2023-12-07T08:28:06.156Z,2814.00
2023-12-07T08:29:08.404Z,2855.00
2023-12-07T08:30:05.810Z,2948.00
2023-12-07T08:31:05.865Z,2961.00
2023-12-07T08:32:05.803Z,2986.00
2023-12-07T08:33:05.903Z,3009.00
2023-12-07T08:34:06.006Z,3048.00
2023-12-07T08:35:05.854Z,3137.00
2023-12-07T08:36:05.802Z,3158.00
2023-12-07T08:37:05.830Z,3173.00
2023-12-07T08:38:05.811Z,3193.00
2023-12-07T08:39:05.804Z,3209.00
2023-12-07T08:40:05.829Z,3244.00
2023-12-07T08:41:05.822Z,3303.00
2023-12-07T08:42:05.852Z,3317.00
2023-12-07T08:43:05.994Z,3331.00
2023-12-07T08:44:06.562Z,3356.00
2023-12-07T08:45:06.595Z,3379.00
2023-12-07T08:46:06.619Z,3410.00
2023-12-07T08:47:05.803Z,3449.00
2023-12-07T08:48:05.911Z,3534.00
2023-12-07T08:49:06.021Z,3559.00
2023-12-07T08:50:05.875Z,3573.00
2023-12-07T08:51:05.812Z,3599.00
2023-12-07T08:52:21.670Z,3628.00
2023-12-07T08:53:06.861Z,3647.00
2023-12-07T08:54:05.898Z,3651.00
2023-12-07T08:55:05.846Z,3667.00
2023-12-07T08:56:05.812Z,3724.00
2023-12-07T08:57:05.815Z,3756.00
2023-12-07T08:58:05.959Z,3774.00
2023-12-07T08:59:05.842Z,3793.00
2023-12-07T09:00:07.040Z,3809.00
2023-12-07T09:01:06.757Z,3829.00
2023-12-07T09:02:06.786Z,3921.00
2023-12-07T09:03:05.975Z,3937.00
2023-12-07T09:04:06.003Z,3949.00
2023-12-07T09:05:07.617Z,3959.00
2023-12-07T09:06:06.061Z,3978.00
2023-12-07T09:07:06.022Z,4002.00
2023-12-07T09:08:05.922Z,4039.00
2023-12-07T09:09:05.947Z,4055.00
2023-12-07T09:10:05.981Z,4081.00
2023-12-07T09:11:05.946Z,4145.00
2023-12-07T09:12:06.402Z,4222.00
2023-12-07T09:13:06.041Z,4216.00
2023-12-07T09:14:05.919Z,4246.00
2023-12-07T09:15:05.935Z,4147.00
2023-12-07T09:16:05.955Z,4106.00
2023-12-07T09:17:05.919Z,4084.00
2023-12-07T09:18:06.190Z,4084.00
2023-12-07T09:19:06.093Z,3989.00
2023-12-07T09:20:06.006Z,4014.00
2023-12-07T09:21:06.608Z,4001.00
2023-12-07T09:22:06.142Z,3838.00
2023-12-07T09:23:06.226Z,3746.00
2023-12-07T09:24:06.262Z,3558.00
2023-12-07T09:25:06.560Z,3540.00
2023-12-07T09:26:06.425Z,3501.00
2023-12-07T09:27:06.459Z,3313.00
2023-12-07T09:28:06.628Z,3107.00
2023-12-07T09:29:07.133Z,2882.00
2023-12-07T09:30:06.647Z,2789.00
2023-12-07T09:31:06.732Z,2827.00
2023-12-07T09:32:06.827Z,2921.00
2023-12-07T09:33:07.871Z,3031.00
2023-12-07T09:34:12.515Z,3066.00
2023-12-07T09:35:07.923Z,3088.00
2023-12-07T09:36:06.955Z,3112.00
2023-12-07T09:37:07.643Z,3129.00
2023-12-07T09:38:06.886Z,3145.00
2023-12-07T09:39:06.961Z,3151.00
2023-12-07T09:40:07.016Z,3153.00
2023-12-07T09:41:06.903Z,3142.00
2023-12-07T09:42:06.978Z,3133.00
2023-12-07T09:43:06.905Z,3128.00
2023-12-07T09:44:06.927Z,3118.00
2023-12-07T09:45:06.976Z,3111.00
2023-12-07T09:46:08.066Z,3107.00
2023-12-07T09:47:06.983Z,3101.00
2023-12-07T09:48:07.646Z,3099.00
2023-12-07T09:49:07.121Z,3098.00
2023-12-07T09:50:06.969Z,3099.00
2023-12-07T09:51:06.975Z,3088.00
2023-12-07T09:52:07.012Z,3071.00
2023-12-07T09:53:08.951Z,3062.00
2023-12-07T09:54:07.007Z,3058.00
2023-12-07T09:55:07.125Z,3057.00
2023-12-07T09:56:07.114Z,3059.00
2023-12-07T09:57:07.171Z,3060.00
2023-12-07T09:58:08.482Z,3059.00
2023-12-07T09:59:07.306Z,3054.00
2023-12-07T10:00:07.376Z,3047.00
2023-12-07T10:01:07.648Z,3045.00
2023-12-07T10:02:07.528Z,3044.00
2023-12-07T10:03:07.583Z,3038.00
2023-12-07T10:04:08.188Z,3031.00
2023-12-07T10:05:07.771Z,3027.00
2023-12-07T10:06:07.682Z,3024.00
2023-12-07T10:07:09.045Z,3020.00
2023-12-07T10:08:10.555Z,3009.00
2023-12-07T10:09:14.751Z,3004.00
2023-12-07T10:10:09.167Z,3004.00
2023-12-07T10:11:07.804Z,2998.00
2023-12-07T10:12:07.816Z,2989.00
2023-12-07T10:13:07.814Z,2982.00
2023-12-07T10:14:07.808Z,2975.00
2023-12-07T10:15:07.799Z,2969.00
2023-12-07T10:16:07.874Z,2969.00
2023-12-07T10:17:07.800Z,2964.00
2023-12-07T10:18:07.936Z,2960.00
2023-12-07T10:19:11.977Z,2831.00
2023-12-07T10:20:09.703Z,2133.00
2023-12-07T10:21:07.804Z,2169.00
2023-12-07T10:22:07.884Z,1922.00
2023-12-07T10:23:07.830Z,1900.00
2023-12-07T10:24:08.620Z,1802.00
2023-12-07T10:25:07.907Z,1794.00
2023-12-07T10:26:07.811Z,1866.00
2023-12-07T10:27:07.823Z,1744.00
2023-12-07T10:28:09.273Z,1808.00
2023-12-07T10:29:09.079Z,1777.00
2023-12-07T10:30:07.858Z,1650.00
2023-12-07T10:31:07.854Z,1572.00
2023-12-07T10:32:07.846Z,1545.00
2023-12-07T10:33:07.860Z,1384.00
2023-12-07T10:34:07.914Z,1557.00
2023-12-07T10:35:07.826Z,1582.00
2023-12-07T10:36:07.960Z,1599.00
2023-12-07T10:37:07.870Z,1633.00
2023-12-07T10:38:08.681Z,1654.00
2023-12-07T10:39:15.064Z,1669.00
2023-12-07T10:40:09.131Z,1684.00
2023-12-07T10:41:07.958Z,1700.00
2023-12-07T10:42:07.858Z,1713.00
2023-12-07T10:43:08.087Z,1808.00
2023-12-07T10:44:07.880Z,1820.00
2023-12-07T10:45:07.842Z,1835.00
2023-12-07T10:46:07.924Z,1919.00
2023-12-07T10:47:07.836Z,1944.00
2023-12-07T10:48:08.056Z,1950.00
2023-12-07T10:49:15.584Z,1978.00
2023-12-07T10:50:08.924Z,1983.00
2023-12-07T10:51:07.857Z,1999.00
2023-12-07T10:52:07.936Z,2021.00
2023-12-07T10:53:07.895Z,2043.00
2023-12-07T10:54:07.863Z,2052.00
2023-12-07T10:55:09.185Z,2062.00
2023-12-07T10:56:07.843Z,2073.00
2023-12-07T10:57:07.835Z,2092.00
2023-12-07T10:58:07.854Z,2097.00
2023-12-07T10:59:08.668Z,2111.00
2023-12-07T11:00:07.913Z,2121.00
2023-12-07T11:01:08.111Z,2157.00
2023-12-07T11:02:08.158Z,2185.00
2023-12-07T11:03:08.224Z,2197.00
2023-12-07T11:04:08.235Z,2210.00
2023-12-07T11:05:08.266Z,2224.00
2023-12-07T11:06:08.265Z,2224.00
2023-12-07T11:07:08.384Z,2238.00
2023-12-07T11:08:09.337Z,2278.00
2023-12-07T11:09:11.024Z,2298.00
2023-12-07T11:10:08.345Z,2315.00
2023-12-07T11:11:08.339Z,2321.00
2023-12-07T11:12:08.333Z,2343.00
2023-12-07T11:13:08.483Z,2344.00
2023-12-07T11:14:08.424Z,2337.00
2023-12-07T11:15:11.556Z,2337.00
2023-12-07T11:16:08.352Z,2330.00
2023-12-07T11:17:08.381Z,2314.00
2023-12-07T11:18:08.398Z,2293.00
2023-12-07T11:19:11.955Z,2274.00
2023-12-07T11:20:08.402Z,2267.00
2023-12-07T11:21:08.338Z,2264.00
2023-12-07T11:22:08.563Z,2266.00
2023-12-07T11:23:08.421Z,2270.00
2023-12-07T11:24:08.349Z,2272.00
2023-12-07T11:25:09.738Z,2274.00
2023-12-07T11:26:08.353Z,2271.00
2023-12-07T11:27:08.358Z,2275.00
2023-12-07T11:28:09.188Z,2277.00
2023-12-07T11:29:11.162Z,2277.00
2023-12-07T11:30:08.359Z,2272.00
2023-12-07T11:31:08.551Z,2268.00
2023-12-07T11:32:16.758Z,2267.00
2023-12-07T11:33:09.397Z,2264.00
2023-12-07T11:34:08.400Z,2255.00
2023-12-07T11:35:08.363Z,2254.00
2023-12-07T11:36:08.415Z,2253.00
2023-12-07T11:37:08.497Z,2251.00
2023-12-07T11:38:09.158Z,2250.00
2023-12-07T11:39:12.678Z,2248.00
2023-12-07T11:40:08.391Z,2248.00
2023-12-07T11:41:08.360Z,2244.00
2023-12-07T11:42:08.355Z,2240.00
2023-12-07T11:43:08.430Z,2233.00
2023-12-07T11:44:08.357Z,2230.00
2023-12-07T11:45:08.358Z,2233.00
2023-12-07T11:46:08.395Z,2230.00
2023-12-07T11:47:08.420Z,2223.00
2023-12-07T11:48:08.568Z,2217.00
2023-12-07T11:49:18.654Z,2216.00
2023-12-07T11:50:09.417Z,2211.00
2023-12-07T11:51:08.377Z,2207.00
2023-12-07T11:52:08.385Z,2205.00
2023-12-07T11:53:09.113Z,2208.00
2023-12-07T11:54:08.378Z,2206.00
2023-12-07T11:55:08.436Z,2205.00
2023-12-07T11:56:08.395Z,2201.00
2023-12-07T11:57:08.422Z,2195.00
2023-12-07T11:58:08.402Z,2192.00
2023-12-07T11:59:10.394Z,2188.00
2023-12-07T12:00:08.381Z,2183.00
2023-12-07T12:01:09.154Z,2179.00
2023-12-07T12:02:08.449Z,2175.00
2023-12-07T12:03:08.392Z,2173.00
2023-12-07T12:04:08.419Z,2165.00
2023-12-07T12:05:08.660Z,2160.00
2023-12-07T12:06:08.410Z,2158.00